KMOX/MOX METAR and TAF weather

Enter ICAO airport designator
Station Type Date Time Source
KMOX METAR 2020/06/06 20:55 UTC NOAA

KMOX 062055Z AUTO 12018KT 10SM OVC050 23/02 A2999 RMK AO2 LTG DSNT NW THRU E


Station Type Date Time Source
KMOX Decoded METAR 2020/06/06 20:55 UTC NOAA

Morris, Morris Municipal Airport, MN, United States (KMOX) 45-34N 095-58W
Jun 06, 2020 - 04:55 PM EDT / 2020.06.06 2055 UTC
Wind: from the ESE (120 degrees) at 21 MPH (18 KT):0
Visibility: 10 mile(s):0
Sky conditions: overcast
Weather: Lightning observed
Temperature: 73 F (23 C)
Dew Point: 35 F (2 C)
Relative Humidity: 25%
Pressure (altimeter): 29.99 in. Hg (1015 hPa)
ob: KMOX 062055Z AUTO 12018KT 10SM OVC050 23/02 A2999 RMK AO2 LTG DSNT NW THRU E
cycle: 21

Station Type Date Time Source
KMOX TAF UTC NOAA

Error!

Example: see airport list